Time;durP1;ratioP1;P1;durP2;ratioP2;P2;SDS_P1;SDS_P2;PMS_P1;PMS_P2;Temp;Humidity;BMP_temperature;BMP_pressure;BME280_temperature;BME280_humidity;BME280_pressure;Samples;Min_cycle;Max_cycle;Signal;HPM_P1;HPM_P2
2020/12/10 00:02:11;;;;;;;0.57;0.57;;;5.40;99.90;;;;;;5033716;28;20532;-77
2020/12/10 00:04:37;;;;;;;0.65;0.65;;;5.30;99.90;;;;;;5033545;28;20256;-76
2020/12/10 00:07:03;;;;;;;0.63;0.63;;;5.40;99.90;;;;;;5033589;28;20643;-78
2020/12/10 00:09:29;;;;;;;1.67;1.58;;;5.40;99.90;;;;;;5033628;28;20255;-76
2020/12/10 00:11:55;;;;;;;0.77;0.77;;;5.50;99.90;;;;;;5032329;28;20199;-76
2020/12/10 00:14:20;;;;;;;1.15;1.05;;;5.50;99.90;;;;;;5033504;28;20187;-75
2020/12/10 00:16:49;;;;;;;0.20;0.20;;;5.40;99.90;;;;;;5033533;28;20578;-76
2020/12/10 00:19:15;;;;;;;0.40;0.40;;;5.50;99.90;;;;;;5033336;28;20654;-76
2020/12/10 00:21:41;;;;;;;0.60;0.60;;;5.50;99.90;;;;;;5033536;28;20726;-75
2020/12/10 00:24:07;;;;;;;1.55;0.93;;;5.40;99.90;;;;;;5033306;28;20270;-75
2020/12/10 00:26:32;;;;;;;0.43;0.43;;;5.40;99.90;;;;;;5033346;28;20243;-75
2020/12/10 00:28:58;;;;;;;0.40;0.40;;;5.40;99.90;;;;;;5033499;28;20172;-76
2020/12/10 00:31:23;;;;;;;1.75;0.77;;;5.30;99.90;;;;;;5033632;28;20167;-76
2020/12/10 00:33:49;;;;;;;1.75;0.88;;;5.20;99.90;;;;;;5036336;28;20203;-76
2020/12/10 00:36:15;;;;;;;1.25;1.10;;;5.20;99.90;;;;;;5037199;28;20172;-75
2020/12/10 00:38:41;;;;;;;0.25;0.25;;;5.40;99.90;;;;;;5039103;28;20199;-76
2020/12/10 00:41:07;;;;;;;1.50;1.40;;;5.50;99.90;;;;;;5035883;28;20172;-76
2020/12/10 00:43:33;;;;;;;0.65;0.65;;;5.30;99.90;;;;;;5031760;28;20192;-76
2020/12/10 00:46:05;;;;;;;0.30;0.30;;;5.10;99.90;;;;;;5033151;28;20243;-76
2020/12/10 00:48:35;;;;;;;0.60;0.60;;;5.20;99.90;;;;;;5033114;28;20588;-76
2020/12/10 00:51:01;;;;;;;0.20;0.20;;;5.10;99.90;;;;;;5033165;28;20180;-76
2020/12/10 00:53:28;;;;;;;0.57;0.57;;;5.10;99.90;;;;;;5032971;28;20246;-76
2020/12/10 00:55:57;;;;;;;1.38;0.88;;;5.20;99.90;;;;;;5033014;28;20225;-76
2020/12/10 00:58:23;;;;;;;0.35;0.35;;;5.40;99.90;;;;;;5032950;28;20270;-76
2020/12/10 01:00:50;;;;;;;2.00;1.00;;;5.20;99.90;;;;;;5032831;28;20638;-76
2020/12/10 01:03:16;;;;;;;4.63;0.70;;;5.10;99.90;;;;;;5032976;28;20171;-76
2020/12/10 01:05:41;;;;;;;0.35;0.35;;;5.10;99.90;;;;;;5035501;28;20163;-76
2020/12/10 01:08:07;;;;;;;0.60;0.60;;;5.10;99.90;;;;;;5037348;28;20159;-76
2020/12/10 01:10:33;;;;;;;1.85;1.58;;;5.10;99.90;;;;;;5036870;28;20251;-76
2020/12/10 01:12:59;;;;;;;0.38;0.38;;;5.20;99.90;;;;;;5035659;28;20175;-76
2020/12/10 01:15:25;;;;;;;0.25;0.25;;;5.30;99.90;;;;;;5037053;28;20187;-76
2020/12/10 01:17:50;;;;;;;0.45;0.45;;;5.20;99.90;;;;;;5036718;28;20629;-75
2020/12/10 01:20:16;;;;;;;0.20;0.20;;;5.10;99.90;;;;;;5036805;28;20160;-75
2020/12/10 01:22:42;;;;;;;1.63;1.52;;;4.90;99.90;;;;;;5036742;28;20580;-77
2020/12/10 01:25:07;;;;;;;1.13;0.70;;;5.00;99.90;;;;;;5036739;28;20187;-76
2020/12/10 01:27:33;;;;;;;0.80;0.80;;;5.10;99.90;;;;;;5036803;28;20275;-76
2020/12/10 01:29:59;;;;;;;0.20;0.20;;;5.20;99.90;;;;;;5036574;28;20226;-76
2020/12/10 01:32:25;;;;;;;0.65;0.63;;;5.30;99.90;;;;;;5036622;28;20677;-76
2020/12/10 01:34:52;;;;;;;0.68;0.68;;;5.30;99.90;;;;;;5035210;28;20192;-76
2020/12/10 01:37:18;;;;;;;0.70;0.52;;;5.30;99.90;;;;;;5035092;28;20179;-76
2020/12/10 01:39:44;;;;;;;1.35;1.27;;;5.50;99.90;;;;;;5036449;28;20635;-75
2020/12/10 01:42:10;;;;;;;1.00;0.60;;;5.70;99.90;;;;;;5035251;28;20175;-76
2020/12/10 01:44:36;;;;;;;0.55;0.55;;;5.60;99.90;;;;;;5036260;28;20187;-75
2020/12/10 01:47:01;;;;;;;0.30;0.30;;;5.50;99.90;;;;;;5051578;22;20172;-74
2020/12/10 01:49:27;;;;;;;0.47;0.47;;;5.60;99.90;;;;;;5014050;28;20643;-76
2020/12/10 01:51:53;;;;;;;0.60;0.60;;;5.60;99.90;;;;;;5015223;28;20250;-76
2020/12/10 01:54:19;;;;;;;0.60;0.60;;;5.70;99.90;;;;;;5016254;28;20567;-76
2020/12/10 01:56:44;;;;;;;0.30;0.30;;;5.70;99.90;;;;;;5015053;28;20183;-77
2020/12/10 01:59:12;;;;;;;0.52;0.52;;;5.40;99.90;;;;;;5016253;28;20200;-76
2020/12/10 02:01:37;;;;;;;0.52;0.52;;;5.20;99.90;;;;;;5015011;28;20222;-76
2020/12/10 02:04:22;;;;;;;0.50;0.50;;;5.20;99.90;;;;;;5016162;28;20189;-75
2020/12/10 02:06:48;;;;;;;1.20;1.10;;;5.40;99.90;;;;;;5016101;28;20188;-76
2020/12/10 02:09:13;;;;;;;0.98;0.75;;;5.40;99.90;;;;;;5016108;28;20193;-76
2020/12/10 02:11:39;;;;;;;0.30;0.30;;;5.40;99.90;;;;;;5016091;28;20219;-76
2020/12/10 02:14:05;;;;;;;1.35;0.40;;;5.60;99.90;;;;;;5015990;28;20193;-77
2020/12/10 02:16:30;;;;;;;0.30;0.30;;;5.40;99.90;;;;;;5015688;28;20176;-76
2020/12/10 02:18:56;;;;;;;0.57;0.57;;;5.40;99.90;;;;;;5015918;28;20547;-76
2020/12/10 02:21:21;;;;;;;0.20;0.20;;;5.40;99.90;;;;;;5015851;28;20164;-77
2020/12/10 02:23:54;;;;;;;0.50;0.50;;;5.40;99.90;;;;;;5015705;28;20263;-76
2020/12/10 02:26:26;;;;;;;0.30;0.30;;;5.40;99.90;;;;;;5015780;28;20636;-77
2020/12/10 02:28:57;;;;;;;2.28;0.55;;;5.30;99.90;;;;;;5015747;28;20203;-77
2020/12/10 02:31:23;;;;;;;0.30;0.30;;;5.40;99.90;;;;;;5015693;28;20512;-77
2020/12/10 02:33:49;;;;;;;0.20;0.20;;;5.40;99.90;;;;;;5015616;28;20180;-77
2020/12/10 02:36:14;;;;;;;0.73;0.73;;;5.40;99.90;;;;;;5015580;28;20215;-77
2020/12/10 02:38:40;;;;;;;0.55;0.55;;;5.50;99.90;;;;;;5015572;28;20214;-76
2020/12/10 02:41:06;;;;;;;0.65;0.65;;;5.60;99.90;;;;;;5015514;28;20192;-76
2020/12/10 02:43:31;;;;;;;0.32;0.32;;;5.70;99.90;;;;;;5015352;28;20193;-77
2020/12/10 02:45:57;;;;;;;0.63;0.63;;;5.70;99.90;;;;;;5015430;28;20200;-77
2020/12/10 02:48:22;;;;;;;1.10;0.68;;;5.70;99.90;;;;;;5013841;28;20270;-76
2020/12/10 02:50:48;;;;;;;0.45;0.45;;;5.60;99.90;;;;;;5014094;28;20672;-77
2020/12/10 02:53:14;;;;;;;0.20;0.20;;;5.60;99.90;;;;;;5015141;28;20242;-76
2020/12/10 02:55:39;;;;;;;1.30;1.17;;;5.60;99.90;;;;;;5015518;28;20169;-76
2020/12/10 02:58:05;;;;;;;1.33;0.82;;;5.80;99.90;;;;;;5015105;28;20554;-76
2020/12/10 03:00:30;;;;;;;0.30;0.30;;;5.80;99.90;;;;;;5015112;28;20230;-76
2020/12/10 03:02:56;;;;;;;0.45;0.45;;;5.50;99.90;;;;;;5015144;28;20226;-76
2020/12/10 03:05:22;;;;;;;1.38;0.40;;;5.50;99.90;;;;;;5014948;28;20199;-75
2020/12/10 03:07:47;;;;;;;0.30;0.30;;;5.50;99.90;;;;;;5014954;28;20161;-76
2020/12/10 03:10:13;;;;;;;2.58;1.65;;;5.60;99.90;;;;;;5014918;28;20516;-75
2020/12/10 03:12:38;;;;;;;0.38;0.38;;;5.60;99.90;;;;;;5014893;28;20164;-76
2020/12/10 03:15:05;;;;;;;0.90;0.85;;;5.50;99.90;;;;;;5013569;28;20235;-77
2020/12/10 03:17:31;;;;;;;0.40;0.40;;;5.50;99.90;;;;;;5014993;28;20206;-76
2020/12/10 03:19:56;;;;;;;0.22;0.22;;;5.50;99.90;;;;;;5013620;28;20271;-77
2020/12/10 03:22:22;;;;;;;0.20;0.20;;;5.40;99.90;;;;;;5014783;28;20243;-77
2020/12/10 03:24:48;;;;;;;2.70;1.63;;;5.30;99.90;;;;;;5014710;28;20192;-77
2020/12/10 03:27:13;;;;;;;0.57;0.57;;;5.30;99.90;;;;;;5014025;28;20183;-77
2020/12/10 03:29:39;;;;;;;2.28;1.30;;;5.30;99.90;;;;;;5014707;28;20169;-77
2020/12/10 03:32:05;;;;;;;0.30;0.30;;;5.40;99.90;;;;;;5014657;28;20210;-77
2020/12/10 03:34:32;;;;;;;0.20;0.20;;;5.30;99.90;;;;;;5013219;28;20239;-77
2020/12/10 03:37:01;;;;;;;0.47;0.47;;;5.40;99.90;;;;;;5013250;28;20168;-77
2020/12/10 03:39:28;;;;;;;0.73;0.73;;;5.30;99.90;;;;;;5014552;28;20595;-77
2020/12/10 03:41:55;;;;;;;1.65;1.38;;;5.20;99.90;;;;;;5014387;28;20183;-76
2020/12/10 03:44:21;;;;;;;0.93;0.93;;;5.30;99.90;;;;;;5014289;28;20188;-76
2020/12/10 03:46:47;;;;;;;1.65;0.52;;;5.40;99.90;;;;;;5014283;28;20184;-77
2020/12/10 03:49:13;;;;;;;0.43;0.43;;;5.40;99.90;;;;;;5014067;28;20250;-77
2020/12/10 03:51:39;;;;;;;0.28;0.28;;;5.60;99.90;;;;;;5014284;28;20163;-76
2020/12/10 03:54:05;;;;;;;0.40;0.40;;;5.80;99.90;;;;;;5014128;28;20682;-77
2020/12/10 03:56:31;;;;;;;0.95;0.95;;;5.60;99.90;;;;;;5014158;28;20244;-77
2020/12/10 03:59:00;;;;;;;1.00;1.00;;;5.60;99.90;;;;;;5013984;28;20736;-77
2020/12/10 04:01:27;;;;;;;0.22;0.22;;;5.60;99.90;;;;;;5013925;28;20196;-76
2020/12/10 04:03:52;;;;;;;15.02;1.85;;;5.70;99.90;;;;;;5013949;28;20193;-78
2020/12/10 04:06:18;;;;;;;0.32;0.32;;;5.60;99.90;;;;;;5013913;28;20618;-75
2020/12/10 04:08:44;;;;;;;0.20;0.20;;;5.70;99.90;;;;;;5013924;28;20153;-77
2020/12/10 04:11:09;;;;;;;0.98;0.45;;;5.80;99.90;;;;;;5012726;28;20749;-77
2020/12/10 04:13:35;;;;;;;0.30;0.30;;;5.70;99.90;;;;;;5013766;28;20553;-76
2020/12/10 04:16:02;;;;;;;1.13;0.88;;;5.90;99.90;;;;;;5013743;28;20616;-77
2020/12/10 04:18:28;;;;;;;0.80;0.80;;;5.90;99.90;;;;;;5014180;28;20219;-76
2020/12/10 04:20:54;;;;;;;0.40;0.40;;;6.00;99.90;;;;;;5013814;28;20616;-77
2020/12/10 04:23:20;;;;;;;0.30;0.30;;;5.90;99.90;;;;;;5013651;28;20181;-76
2020/12/10 04:25:58;;;;;;;0.70;0.70;;;6.00;99.90;;;;;;5013601;28;20164;-76
2020/12/10 04:28:24;;;;;;;0.73;0.73;;;6.10;99.90;;;;;;5013614;28;20251;-77
2020/12/10 04:30:50;;;;;;;0.52;0.52;;;6.00;99.90;;;;;;5013532;28;20299;-77
2020/12/10 04:33:16;;;;;;;0.82;0.82;;;6.00;99.90;;;;;;5012228;28;20236;-77
2020/12/10 04:35:42;;;;;;;0.55;0.55;;;6.00;99.90;;;;;;5013536;28;20627;-77
2020/12/10 04:38:09;;;;;;;0.77;0.77;;;6.00;99.90;;;;;;5012894;28;20648;-77
2020/12/10 04:40:36;;;;;;;0.25;0.25;;;6.00;99.90;;;;;;5013091;28;20655;-77
2020/12/10 04:43:07;;;;;;;1.73;1.63;;;6.00;99.90;;;;;;5013576;28;20215;-77
2020/12/10 04:45:32;;;;;;;0.17;0.17;;;6.00;99.90;;;;;;5013369;28;20203;-77
2020/12/10 04:47:59;;;;;;;0.75;0.75;;;6.10;99.90;;;;;;5013373;28;20310;-76
2020/12/10 04:50:26;;;;;;;1.85;1.08;;;6.30;99.90;;;;;;5013188;28;20619;-77
2020/12/10 04:52:52;;;;;;;1.75;1.13;;;6.50;99.90;;;;;;5013209;28;20168;-77
2020/12/10 04:55:19;;;;;;;2.20;1.00;;;6.60;99.90;;;;;;5013163;28;20268;-77
2020/12/10 04:57:45;;;;;;;0.98;0.98;;;6.60;99.90;;;;;;5013089;28;20208;-77
2020/12/10 05:00:16;;;;;;;1.63;0.57;;;6.50;99.90;;;;;;5013432;28;20169;-76
2020/12/10 05:02:45;;;;;;;1.02;0.98;;;6.50;99.90;;;;;;5013289;28;20157;-76
2020/12/10 05:05:31;;;;;;;0.50;0.50;;;6.40;99.90;;;;;;5011851;28;20203;-76
2020/12/10 05:07:58;;;;;;;0.32;0.32;;;6.50;99.90;;;;;;5013181;28;20167;-76
2020/12/10 05:10:24;;;;;;;4.78;1.42;;;6.50;99.90;;;;;;5013151;28;20169;-76
2020/12/10 05:12:50;;;;;;;11.40;1.23;;;6.50;99.90;;;;;;5011854;28;20238;-76
2020/12/10 05:15:29;;;;;;;0.50;0.50;;;6.60;99.90;;;;;;5011773;28;20197;-76
2020/12/10 05:18:05;;;;;;;1.05;1.05;;;6.70;99.90;;;;;;5011641;28;20299;-76
2020/12/10 05:20:39;;;;;;;0.47;0.47;;;6.60;99.90;;;;;;5012989;28;20693;-75
2020/12/10 05:23:07;;;;;;;1.05;0.80;;;6.40;99.90;;;;;;5013077;28;20196;-75
2020/12/10 05:25:51;;;;;;;3.60;1.00;;;6.60;99.90;;;;;;5011998;28;20695;-76
2020/12/10 05:28:21;;;;;;;0.73;0.73;;;6.40;99.90;;;;;;5013105;28;20161;-76
2020/12/10 05:31:12;;;;;;;12.95;1.40;;;6.40;99.90;;;;;;5012738;28;20516;-75
2020/12/10 05:33:54;;;;;;;0.85;0.85;;;6.50;99.90;;;;;;5012982;28;20211;-76
2020/12/10 05:36:20;;;;;;;3.70;1.23;;;6.60;99.90;;;;;;5012854;28;20179;-75
2020/12/10 05:39:10;;;;;;;4.80;1.20;;;6.70;99.90;;;;;;5012816;28;20286;-75
2020/12/10 05:41:44;;;;;;;0.20;0.20;;;6.30;99.90;;;;;;5013050;28;20219;-74
2020/12/10 05:44:23;;;;;;;2.55;0.93;;;6.40;99.90;;;;;;5012803;28;20539;-75
2020/12/10 05:47:02;;;;;;;0.52;0.52;;;6.40;99.90;;;;;;5012737;28;20184;-75
2020/12/10 05:49:28;;;;;;;0.40;0.40;;;6.30;99.90;;;;;;5012807;28;20172;-75
2020/12/10 05:52:01;;;;;;;0.40;0.40;;;6.10;99.90;;;;;;5016264;28;20148;-75
2020/12/10 05:54:32;;;;;;;0.63;0.63;;;6.20;99.90;;;;;;5016056;28;20187;-75
2020/12/10 05:57:02;;;;;;;0.30;0.30;;;6.30;99.90;;;;;;5016225;28;20165;-75
2020/12/10 05:59:29;;;;;;;0.75;0.75;;;6.40;99.90;;;;;;5016118;28;20204;-76
2020/12/10 06:01:57;;;;;;;1.02;0.80;;;6.50;99.90;;;;;;5014957;28;20238;-76
2020/12/10 06:04:24;;;;;;;0.15;0.15;;;6.70;99.90;;;;;;5015894;28;20207;-76
2020/12/10 06:06:51;;;;;;;0.60;0.60;;;6.60;99.90;;;;;;5015933;28;20180;-76
2020/12/10 06:09:19;;;;;;;0.20;0.20;;;6.60;99.90;;;;;;5015916;28;20157;-76
2020/12/10 06:11:45;;;;;;;0.93;0.93;;;6.70;99.90;;;;;;5016112;28;20160;-76
2020/12/10 06:14:11;;;;;;;0.57;0.57;;;6.50;99.90;;;;;;5015670;28;20192;-75
2020/12/10 06:16:37;;;;;;;1.15;1.05;;;6.50;99.90;;;;;;5015676;28;20172;-75
2020/12/10 06:19:05;;;;;;;0.52;0.52;;;6.50;99.90;;;;;;5015952;28;20192;-75
2020/12/10 06:21:33;;;;;;;0.25;0.25;;;6.50;99.90;;;;;;5015669;28;20670;-75
2020/12/10 06:23:59;;;;;;;1.30;0.70;;;6.60;99.90;;;;;;5015561;28;20693;-76
2020/12/10 06:26:24;;;;;;;0.40;0.40;;;6.60;99.90;;;;;;5015645;28;20165;-75
2020/12/10 06:29:11;;;;;;;0.50;0.50;;;6.50;99.90;;;;;;5015596;28;20231;-76
2020/12/10 06:32:06;;;;;;;0.20;0.20;;;6.60;99.90;;;;;;5015422;28;20672;-75
2020/12/10 06:34:43;;;;;;;1.05;0.95;;;6.70;99.90;;;;;;5015514;28;20259;-76
2020/12/10 06:37:29;;;;;;;0.30;0.30;;;6.50;99.90;;;;;;5015378;28;20195;-75
2020/12/10 06:40:04;;;;;;;0.80;0.68;;;6.50;99.90;;;;;;5014953;28;20183;-75
2020/12/10 06:42:48;;;;;;;0.88;0.88;;;6.60;99.90;;;;;;5014914;28;20172;-76
2020/12/10 06:45:43;;;;;;;0.20;0.20;;;6.60;99.90;;;;;;5014868;28;20728;-75
2020/12/10 06:48:18;;;;;;;0.47;0.47;;;6.50;99.90;;;;;;5009278;28;20287;-76
2020/12/10 06:50:44;;;;;;;0.30;0.30;;;6.60;99.90;;;;;;5015013;28;20531;-76
2020/12/10 06:53:15;;;;;;;0.82;0.82;;;6.70;99.90;;;;;;5014807;28;20168;-76
2020/12/10 06:55:59;;;;;;;1.85;0.90;;;6.70;99.90;;;;;;5014585;28;20153;-76
2020/12/10 06:58:36;;;;;;;0.63;0.63;;;6.80;99.90;;;;;;5014876;28;20562;-76
2020/12/10 07:01:25;;;;;;;0.32;0.32;;;7.00;99.90;;;;;;5013932;28;20180;-76
2020/12/10 07:03:55;;;;;;;2.42;2.25;;;6.90;99.90;;;;;;5014624;28;20604;-76
2020/12/10 07:06:21;;;;;;;0.43;0.43;;;7.00;99.90;;;;;;5014269;28;20164;-76
2020/12/10 07:09:13;;;;;;;0.45;0.45;;;6.80;99.90;;;;;;5014743;28;20164;-76
2020/12/10 07:11:41;;;;;;;2.55;1.35;;;6.70;99.90;;;;;;5014633;28;20156;-76
2020/12/10 07:14:27;;;;;;;0.50;0.50;;;6.70;99.90;;;;;;5014434;28;20200;-76
2020/12/10 07:16:55;;;;;;;0.70;0.70;;;6.90;99.90;;;;;;5014685;28;20945;-76
2020/12/10 07:19:22;;;;;;;0.60;0.60;;;7.00;99.90;;;;;;5014528;28;20291;-77
2020/12/10 07:21:48;;;;;;;1.23;1.13;;;6.90;99.90;;;;;;5014031;28;20193;-77
2020/12/10 07:24:14;;;;;;;0.98;0.90;;;6.80;99.90;;;;;;5012822;28;20192;-76
2020/12/10 07:26:40;;;;;;;0.32;0.32;;;6.70;99.90;;;;;;5013157;28;20169;-77
2020/12/10 07:29:06;;;;;;;6.70;3.05;;;6.70;99.90;;;;;;5014192;28;20180;-76
2020/12/10 07:31:32;;;;;;;0.50;0.50;;;6.70;99.90;;;;;;5014225;28;20172;-77
2020/12/10 07:33:58;;;;;;;1.58;1.50;;;6.90;99.90;;;;;;5014016;28;20192;-77
2020/12/10 07:36:26;;;;;;;2.67;1.50;;;7.10;99.90;;;;;;5011886;28;20180;-74
2020/12/10 07:38:51;;;;;;;1.05;1.05;;;7.10;99.90;;;;;;5013894;28;20200;-76
2020/12/10 07:41:17;;;;;;;0.47;0.47;;;7.10;99.90;;;;;;5013380;28;20179;-76
2020/12/10 07:43:50;;;;;;;0.50;0.38;;;7.20;99.90;;;;;;5013782;28;20196;-75
2020/12/10 07:46:17;;;;;;;0.73;0.73;;;6.90;99.90;;;;;;5013849;28;20169;-76
2020/12/10 07:48:46;;;;;;;0.45;0.45;;;7.00;99.90;;;;;;5012791;28;20251;-76
2020/12/10 07:51:22;;;;;;;0.30;0.30;;;6.90;99.90;;;;;;5012682;28;20619;-75
2020/12/10 07:53:48;;;;;;;0.70;0.70;;;6.80;99.90;;;;;;5014137;28;20426;-77
2020/12/10 07:56:26;;;;;;;0.30;0.30;;;6.80;99.90;;;;;;5013881;28;20183;-76
2020/12/10 07:59:10;;;;;;;0.13;0.13;;;7.00;99.90;;;;;;5017670;28;20291;-76
2020/12/10 08:01:53;;;;;;;0.65;0.60;;;6.90;99.90;;;;;;5015681;28;20152;-76
2020/12/10 08:04:20;;;;;;;0.98;0.98;;;6.90;99.90;;;;;;5017092;28;20319;-75
2020/12/10 08:06:50;;;;;;;0.40;0.40;;;7.10;99.90;;;;;;5014450;28;20172;-77
2020/12/10 08:09:17;;;;;;;0.98;0.98;;;7.20;99.90;;;;;;5029825;28;20259;-76
2020/12/10 08:11:56;;;;;;;0.32;0.32;;;7.10;99.90;;;;;;5014843;28;20523;-75
2020/12/10 08:14:29;;;;;;;0.40;0.40;;;7.00;99.90;;;;;;5014291;28;20279;-76
2020/12/10 08:16:57;;;;;;;2.25;2.05;;;7.20;99.90;;;;;;5015521;28;20179;-75
2020/12/10 08:19:31;;;;;;;1.70;1.60;;;7.10;99.90;;;;;;5014439;28;20211;-76
2020/12/10 08:21:58;;;;;;;0.30;0.30;;;6.90;99.90;;;;;;5029872;28;20164;-76
2020/12/10 08:24:41;;;;;;;0.52;0.52;;;6.90;99.90;;;;;;5014751;28;20188;-75
2020/12/10 08:27:10;;;;;;;0.50;0.50;;;6.90;99.90;;;;;;5014556;28;20168;-76
2020/12/10 08:29:35;;;;;;;3.83;1.08;;;7.00;99.90;;;;;;5014768;28;20173;-76
2020/12/10 08:32:09;;;;;;;8.10;2.63;;;7.10;99.90;;;;;;5013846;28;20164;-76
2020/12/10 08:34:36;;;;;;;2.17;0.63;;;7.10;99.90;;;;;;5014065;28;20238;-77
2020/12/10 08:37:03;;;;;;;1.67;1.58;;;7.00;99.90;;;;;;5014018;28;20211;-77
2020/12/10 08:39:35;;;;;;;14.05;1.02;;;6.90;99.90;;;;;;5011010;28;20234;-77
2020/12/10 08:42:02;;;;;;;1.83;1.73;;;6.90;99.90;;;;;;5013706;28;20157;-76
2020/12/10 08:44:46;;;;;;;0.95;0.95;;;7.00;99.90;;;;;;5020910;28;20196;-77
2020/12/10 08:47:11;;;;;;;0.55;0.55;;;7.00;99.90;;;;;;5024347;28;20187;-80
2020/12/10 08:49:37;;;;;;;7.38;3.05;;;7.30;99.90;;;;;;4996735;28;20173;-77
2020/12/10 08:52:03;;;;;;;1.33;1.10;;;7.10;99.90;;;;;;4992686;28;20165;-76
2020/12/10 08:54:28;;;;;;;1.88;1.77;;;6.90;99.90;;;;;;4999045;28;20189;-76
2020/12/10 08:57:02;;;;;;;0.32;0.32;;;6.90;99.90;;;;;;5012482;28;20252;-76
2020/12/10 08:59:27;;;;;;;0.20;0.20;;;7.00;99.90;;;;;;5012294;28;20227;-77
2020/12/10 09:01:53;;;;;;;1.38;1.33;;;7.20;99.90;;;;;;5012617;28;20161;-77
2020/12/10 09:04:19;;;;;;;1.25;1.17;;;7.30;99.90;;;;;;5011771;28;20220;-76
2020/12/10 09:06:45;;;;;;;3.20;0.40;;;7.30;99.90;;;;;;5012716;28;20164;-77
2020/12/10 09:09:10;;;;;;;0.28;0.28;;;7.20;99.90;;;;;;5012804;28;20632;-76
2020/12/10 09:11:36;;;;;;;0.50;0.50;;;7.10;99.90;;;;;;5012916;28;20196;-77
2020/12/10 09:14:01;;;;;;;0.57;0.57;;;7.10;99.90;;;;;;5015966;28;20207;-77
2020/12/10 09:16:29;;;;;;;0.85;0.85;;;6.80;99.90;;;;;;5022019;28;20222;-77
2020/12/10 09:18:55;;;;;;;0.30;0.30;;;6.90;99.90;;;;;;5007882;28;20227;-77
2020/12/10 09:21:21;;;;;;;1.48;1.38;;;7.20;99.90;;;;;;5012821;28;20179;-75
2020/12/10 09:23:47;;;;;;;1.80;1.65;;;7.10;99.90;;;;;;5012595;28;20192;-77
2020/12/10 09:26:13;;;;;;;8.50;2.65;;;7.00;99.90;;;;;;5016221;28;20173;-76
2020/12/10 09:28:39;;;;;;;1.40;0.93;;;7.00;99.90;;;;;;5016848;28;20167;-76
2020/12/10 09:31:05;;;;;;;1.00;1.00;;;7.10;99.90;;;;;;5016475;28;20165;-76
2020/12/10 09:33:31;;;;;;;1.83;1.73;;;7.20;99.90;;;;;;5017000;28;20180;-76
2020/12/10 09:35:57;;;;;;;0.40;0.40;;;7.30;99.90;;;;;;5015605;28;20165;-77
2020/12/10 09:38:22;;;;;;;0.68;0.63;;;7.20;99.90;;;;;;5016532;28;20197;-75
2020/12/10 09:40:48;;;;;;;0.80;0.80;;;7.40;99.90;;;;;;5015846;28;20196;-76
2020/12/10 09:43:14;;;;;;;2.00;1.05;;;7.50;99.90;;;;;;5016971;28;20180;-75
2020/12/10 09:45:40;;;;;;;1.70;1.58;;;7.50;99.90;;;;;;5016349;28;20260;-76
2020/12/10 09:48:06;;;;;;;0.82;0.82;;;7.60;99.90;;;;;;5014428;28;20722;-76
2020/12/10 09:50:35;;;;;;;3.33;1.80;;;7.70;99.90;;;;;;5016015;28;20192;-75
2020/12/10 09:53:06;;;;;;;0.25;0.25;;;7.80;99.90;;;;;;5016208;28;20223;-75
2020/12/10 09:58:04;;;;;;;3.83;1.75;;;7.50;99.90;;;;;;5016264;28;20209;-76
2020/12/10 10:00:29;;;;;;;0.90;0.90;;;7.40;99.90;;;;;;5016455;28;20164;-76
2020/12/10 10:02:55;;;;;;;1.65;1.27;;;7.40;99.90;;;;;;5016578;28;20639;-76
2020/12/10 10:05:20;;;;;;;1.10;1.05;;;7.10;99.90;;;;;;5015844;28;20199;-76
2020/12/10 10:07:46;;;;;;;0.40;0.40;;;7.20;99.90;;;;;;5014832;28;20168;-78
2020/12/10 10:10:11;;;;;;;0.93;0.93;;;7.30;99.90;;;;;;5013774;28;20547;-76
2020/12/10 10:12:37;;;;;;;1.17;1.17;;;7.30;99.90;;;;;;5015348;28;20243;-76
2020/12/10 10:15:03;;;;;;;0.63;0.63;;;7.30;99.90;;;;;;5015523;28;20188;-76
2020/12/10 10:17:29;;;;;;;4.03;1.10;;;7.40;99.90;;;;;;5015509;28;20276;-76
2020/12/10 10:19:54;;;;;;;0.60;0.35;;;7.70;99.90;;;;;;5015284;28;20207;-76
2020/12/10 10:22:20;;;;;;;0.45;0.45;;;7.70;99.90;;;;;;5015603;28;20160;-77
2020/12/10 10:24:45;;;;;;;0.45;0.45;;;7.80;99.90;;;;;;5014932;28;20279;-77
2020/12/10 10:27:11;;;;;;;1.15;1.08;;;7.90;99.90;;;;;;5015483;28;20215;-76
2020/12/10 10:29:37;;;;;;;0.40;0.40;;;8.10;99.90;;;;;;5015387;28;20177;-77
2020/12/10 10:32:05;;;;;;;2.22;1.15;;;8.00;99.90;;;;;;5014885;28;20238;-76
2020/12/10 10:34:30;;;;;;;0.77;0.77;;;8.00;99.90;;;;;;5015507;28;20279;-77
2020/12/10 10:36:56;;;;;;;3.50;0.75;;;7.70;99.90;;;;;;5014527;28;20200;-76
2020/12/10 10:39:22;;;;;;;2.92;2.70;;;7.80;99.90;;;;;;5013031;28;20205;-76
2020/12/10 10:41:49;;;;;;;0.43;0.40;;;7.90;99.90;;;;;;5013972;28;20199;-76
2020/12/10 10:44:15;;;;;;;0.40;0.40;;;7.90;99.90;;;;;;5015614;28;20599;-76
2020/12/10 10:46:41;;;;;;;1.45;1.05;;;8.10;99.90;;;;;;5015356;28;20168;-76
2020/12/10 10:49:07;;;;;;;5.47;1.85;;;8.10;99.90;;;;;;5014023;28;20216;-77
2020/12/10 10:51:33;;;;;;;1.85;1.25;;;7.90;99.90;;;;;;5017919;28;20179;-75
2020/12/10 10:53:59;;;;;;;0.20;0.20;;;7.90;99.90;;;;;;5020259;28;20184;-76
2020/12/10 10:56:25;;;;;;;0.70;0.70;;;7.60;99.90;;;;;;5017343;28;20180;-76
2020/12/10 10:58:51;;;;;;;0.30;0.30;;;7.70;99.90;;;;;;5014654;28;20224;-76
2020/12/10 11:01:25;;;;;;;0.80;0.80;;;7.60;99.90;;;;;;5015655;28;20173;-76
2020/12/10 11:03:54;;;;;;;8.73;1.00;;;7.50;99.90;;;;;;5022582;28;20209;-75
2020/12/10 11:06:20;;;;;;;2.35;1.95;;;7.60;99.90;;;;;;5026406;28;20577;-75
2020/12/10 11:08:46;;;;;;;1.75;1.13;;;7.70;99.90;;;;;;5016549;28;20184;-76
2020/12/10 11:11:16;;;;;;;0.90;0.75;;;7.90;99.90;;;;;;5019594;28;20169;-76
2020/12/10 11:13:41;;;;;;;0.52;0.38;;;8.00;99.90;;;;;;5017637;28;20223;-76
2020/12/10 11:16:08;;;;;;;2.88;1.92;;;7.90;99.90;;;;;;5014079;28;20196;-79
2020/12/10 11:18:34;;;;;;;0.35;0.35;;;8.00;99.90;;;;;;5014596;28;20204;-77
2020/12/10 11:20:59;;;;;;;0.88;0.73;;;7.80;99.90;;;;;;5012324;28;20238;-76
2020/12/10 11:23:25;;;;;;;0.63;0.63;;;8.10;99.90;;;;;;5013960;28;20185;-76
2020/12/10 11:25:50;;;;;;;1.50;1.40;;;8.20;99.90;;;;;;5013010;28;20188;-77
2020/12/10 11:28:17;;;;;;;4.13;1.52;;;8.10;99.90;;;;;;4997342;28;20179;-77
2020/12/10 11:30:42;;;;;;;1.48;1.33;;;8.20;99.90;;;;;;4995354;28;20169;-77
2020/12/10 11:33:08;;;;;;;1.15;1.15;;;8.30;99.90;;;;;;5000683;28;20187;-76
2020/12/10 11:35:33;;;;;;;0.98;0.98;;;8.40;99.90;;;;;;5013785;28;20240;-76
2020/12/10 11:37:59;;;;;;;0.28;0.28;;;8.50;99.90;;;;;;4999781;28;20205;-76
2020/12/10 11:40:25;;;;;;;0.95;0.95;;;8.60;99.90;;;;;;5008597;28;20272;-77
2020/12/10 11:42:51;;;;;;;0.77;0.77;;;8.50;99.90;;;;;;5014793;28;20180;-77
2020/12/10 11:45:18;;;;;;;0.90;0.90;;;8.50;99.90;;;;;;5012383;28;20588;-77
2020/12/10 11:47:45;;;;;;;0.50;0.50;;;8.50;99.90;;;;;;5009620;28;20228;-76
2020/12/10 11:50:18;;;;;;;2.80;1.27;;;8.60;99.90;;;;;;4994793;28;20193;-76
2020/12/10 11:52:45;;;;;;;2.08;1.58;;;8.50;99.90;;;;;;4996784;28;20161;-76
2020/12/10 11:55:11;;;;;;;3.33;2.00;;;8.40;99.90;;;;;;5013275;28;20214;-76
2020/12/10 11:57:36;;;;;;;0.60;0.57;;;8.40;99.90;;;;;;5014336;28;20222;-75
2020/12/10 12:00:04;;;;;;;2.47;2.28;;;8.20;99.90;;;;;;4999251;28;20260;-75
2020/12/10 12:02:29;;;;;;;0.22;0.22;;;8.10;99.90;;;;;;4994752;28;20153;-75
2020/12/10 12:04:55;;;;;;;5.82;1.40;;;8.00;99.90;;;;;;5001369;28;20560;-76
2020/12/10 12:07:21;;;;;;;0.35;0.35;;;8.10;99.90;;;;;;5004153;28;20181;-77
2020/12/10 12:09:47;;;;;;;0.65;0.65;;;8.30;99.90;;;;;;5002015;28;20666;-77
2020/12/10 12:12:13;;;;;;;1.55;1.48;;;8.30;99.90;;;;;;5013693;28;20157;-76
2020/12/10 12:14:39;;;;;;;0.70;0.70;;;7.80;99.90;;;;;;5003793;28;20200;-77
2020/12/10 12:17:04;;;;;;;0.40;0.40;;;7.70;99.90;;;;;;4995235;28;20190;-78
2020/12/10 12:19:30;;;;;;;3.47;0.80;;;7.80;99.90;;;;;;5005424;28;20212;-77
2020/12/10 12:22:00;;;;;;;0.38;0.38;;;8.00;99.90;;;;;;5014624;28;20156;-77
2020/12/10 12:24:25;;;;;;;0.90;0.90;;;8.00;99.90;;;;;;5009786;28;20207;-75
2020/12/10 12:26:51;;;;;;;5.47;0.60;;;8.00;99.90;;;;;;5002614;28;20168;-75
2020/12/10 12:29:16;;;;;;;3.13;1.55;;;8.00;99.90;;;;;;4994141;28;20187;-75
2020/12/10 12:31:42;;;;;;;0.28;0.28;;;8.00;99.90;;;;;;4993758;28;20574;-75
2020/12/10 12:34:07;;;;;;;0.68;0.68;;;8.10;99.90;;;;;;5007037;28;20291;-76
2020/12/10 12:36:33;;;;;;;0.77;0.77;;;8.00;99.90;;;;;;5008790;28;20185;-75
2020/12/10 12:38:59;;;;;;;2.03;1.75;;;8.00;99.90;;;;;;4992187;28;20259;-76
2020/12/10 12:41:29;;;;;;;2.05;0.65;;;8.20;99.90;;;;;;4994030;28;20177;-76
2020/12/10 12:43:55;;;;;;;8.00;1.45;;;8.30;99.90;;;;;;5010112;28;20279;-75
2020/12/10 12:46:22;;;;;;;1.77;0.70;;;8.40;99.90;;;;;;4993028;28;20308;-76
2020/12/10 12:48:49;;;;;;;8.82;1.55;;;8.40;99.90;;;;;;4998878;28;20225;-76
2020/12/10 12:51:17;;;;;;;1.25;1.15;;;8.50;99.90;;;;;;5013794;28;20161;-76
2020/12/10 12:53:42;;;;;;;0.55;0.55;;;8.70;99.90;;;;;;5003321;28;20283;-86
2020/12/10 12:56:08;;;;;;;7.63;1.40;;;8.50;99.90;;;;;;5008698;28;20287;-75
2020/12/10 12:58:34;;;;;;;0.80;0.80;;;8.30;99.90;;;;;;4994172;28;20244;-77
2020/12/10 13:01:00;;;;;;;1.52;1.42;;;8.30;99.90;;;;;;4995550;28;20177;-78
2020/12/10 13:03:25;;;;;;;8.35;1.00;;;8.40;99.90;;;;;;4998487;28;20196;-75
2020/12/10 13:05:51;;;;;;;3.90;0.85;;;8.50;99.90;;;;;;5012411;28;20559;-79